createdAt,value
2019-04-29T06:53:06.140Z,5.50
2019-04-29T06:55:35.869Z,6.87
2019-04-29T06:58:05.179Z,9.70
2019-04-29T07:00:34.203Z,6.07
2019-04-29T07:03:03.872Z,4.57
2019-04-29T07:05:33.152Z,3.90
2019-04-29T07:08:03.069Z,3.90
2019-04-29T07:10:32.472Z,5.70
2019-04-29T07:13:02.069Z,3.73
2019-04-29T07:15:31.679Z,5.27
2019-04-29T07:18:00.606Z,8.37
2019-04-29T07:20:32.571Z,5.90
2019-04-29T07:23:02.462Z,5.00
2019-04-29T07:25:31.639Z,4.23
2019-04-29T07:28:00.940Z,4.80
2019-04-29T07:32:58.623Z,5.43
2019-04-29T07:35:27.693Z,4.80
2019-04-29T07:37:56.640Z,6.30
2019-04-29T07:40:25.943Z,8.77
2019-04-29T07:42:55.521Z,5.03
2019-04-29T07:45:44.234Z,10.30
2019-04-29T07:48:12.917Z,10.70
2019-04-29T07:50:42.455Z,10.47
2019-04-29T07:53:11.759Z,5.00
2019-04-29T07:55:40.619Z,6.87
2019-04-29T07:58:09.616Z,12.13
2019-04-29T08:00:39.139Z,5.03
2019-04-29T08:03:08.971Z,6.13
2019-04-29T08:05:38.576Z,7.63
2019-04-29T08:08:07.964Z,6.90
2019-04-29T08:10:51.291Z,5.23
2019-04-29T08:13:08.499Z,9.33
2019-04-29T08:15:41.484Z,4.90
2019-04-29T08:18:11.352Z,9.80
2019-04-29T08:20:41.327Z,13.33
2019-04-29T08:23:10.522Z,5.23
2019-04-29T08:25:40.039Z,5.30
2019-04-29T08:28:09.322Z,8.10
2019-04-29T08:30:41.818Z,8.50
2019-04-29T08:33:12.088Z,7.37
2019-04-29T08:35:40.704Z,8.00
2019-04-29T08:38:10.212Z,10.77
2019-04-29T08:40:39.409Z,6.90
2019-04-29T08:43:30.359Z,5.27
2019-04-29T08:46:15.396Z,6.70
2019-04-29T08:48:45.995Z,5.07
2019-04-29T08:51:15.096Z,10.90
2019-04-29T08:53:44.038Z,8.40
2019-04-29T08:56:13.295Z,7.57
2019-04-29T08:58:44.269Z,9.33
2019-04-29T09:01:13.540Z,9.40
2019-04-29T09:03:42.480Z,10.77
2019-04-29T09:06:11.783Z,6.80
2019-04-29T09:08:54.023Z,13.17
2019-04-29T09:11:12.947Z,8.80
2019-04-29T09:13:43.679Z,16.20
2019-04-29T09:16:12.964Z,9.07
2019-04-29T09:18:42.523Z,5.63
2019-04-29T09:21:11.535Z,9.23
2019-04-29T09:23:40.807Z,5.67
2019-04-29T09:26:16.568Z,8.67
2019-04-29T09:29:23.036Z,8.40
2019-04-29T09:31:52.065Z,15.30
2019-04-29T09:34:24.831Z,8.97
2019-04-29T09:36:52.597Z,10.37
2019-04-29T09:39:21.611Z,6.00
2019-04-29T09:42:19.435Z,6.67
2019-04-29T09:45:02.921Z,3.00
2019-04-29T09:47:32.489Z,5.60
2019-04-29T09:50:01.780Z,4.30
2019-04-29T09:52:31.071Z,5.97
2019-04-29T09:55:03.981Z,5.43
2019-04-29T09:57:31.719Z,5.07
2019-04-29T10:00:27.235Z,5.77
2019-04-29T10:03:03.967Z,3.73
2019-04-29T10:05:39.776Z,15.07
2019-04-29T10:08:09.060Z,5.77
2019-04-29T10:10:38.486Z,5.77
2019-04-29T10:13:07.401Z,5.80
2019-04-29T10:16:04.677Z,6.90
2019-04-29T10:18:45.171Z,3.47
2019-04-29T10:21:33.300Z,6.80
2019-04-29T10:24:02.268Z,9.57
2019-04-29T10:26:31.500Z,5.67
2019-04-29T10:29:04.816Z,3.90
2019-04-29T10:31:33.847Z,6.53
2019-04-29T10:34:02.935Z,10.97
2019-04-29T10:36:31.931Z,2.90
2019-04-29T10:39:08.795Z,6.53
2019-04-29T10:41:41.756Z,5.33
2019-04-29T10:44:29.950Z,6.28
2019-04-29T10:47:12.798Z,4.20
2019-04-29T10:50:04.703Z,6.53
2019-04-29T10:52:34.418Z,5.00
2019-04-29T10:55:05.480Z,4.53
2019-04-29T10:57:34.408Z,5.33
2019-04-29T11:00:16.896Z,7.53
2019-04-29T11:02:49.405Z,6.00
2019-04-29T11:05:44.625Z,5.43
2019-04-29T11:08:33.829Z,6.63
2019-04-29T11:11:02.800Z,2.73
2019-04-29T11:13:31.928Z,8.10
2019-04-29T11:16:00.940Z,8.57
2019-04-29T11:18:30.194Z,4.70
2019-04-29T11:20:59.239Z,7.43
2019-04-29T11:23:56.710Z,6.00
2019-04-29T11:26:48.203Z,3.53
2019-04-29T11:29:17.466Z,3.77
2019-04-29T11:31:49.182Z,5.33
2019-04-29T11:34:41.280Z,8.10
2019-04-29T11:37:13.761Z,5.00
2019-04-29T11:39:46.247Z,6.70
2019-04-29T11:42:36.777Z,4.80
2019-04-29T11:45:08.696Z,3.97
2019-04-29T11:47:37.740Z,5.10
2019-04-29T11:50:28.571Z,7.40
2019-04-29T11:52:57.783Z,11.50
2019-04-29T11:55:27.163Z,5.83
2019-04-29T11:58:04.203Z,3.40
2019-04-29T12:00:52.097Z,6.30
2019-04-29T12:03:23.263Z,10.10
2019-04-29T12:05:55.527Z,3.60
2019-04-29T12:08:24.803Z,9.67
2019-04-29T12:11:06.731Z,7.30
2019-04-29T12:13:43.527Z,6.67
2019-04-29T12:16:46.987Z,6.67
2019-04-29T12:19:33.335Z,6.73
2019-04-29T12:22:04.795Z,12.23
2019-04-29T12:24:34.295Z,7.40
2019-04-29T12:27:04.648Z,3.37
2019-04-29T12:29:33.527Z,3.20
2019-04-29T12:32:13.299Z,5.20
2019-04-29T12:34:49.514Z,8.80
2019-04-29T12:37:36.299Z,7.40
2019-04-29T12:40:26.032Z,5.43
2019-04-29T12:43:23.696Z,4.10
2019-04-29T12:46:00.060Z,6.50
2019-04-29T12:48:29.357Z,5.63
2019-04-29T12:50:59.547Z,3.90
2019-04-29T12:53:28.782Z,10.13
2019-04-29T12:55:58.080Z,6.53
2019-04-29T12:58:27.400Z,5.90
2019-04-29T13:01:01.193Z,5.30
2019-04-29T13:03:57.619Z,6.83
2019-04-29T13:06:52.416Z,8.37
2019-04-29T13:09:30.391Z,10.93
2019-04-29T13:12:18.910Z,7.23
2019-04-29T13:14:33.254Z,5.20
2019-04-29T13:17:14.799Z,6.20
2019-04-29T13:20:00.908Z,9.87
2019-04-29T13:22:20.061Z,6.70
2019-04-29T13:24:48.908Z,3.60
2019-04-29T13:27:20.826Z,8.47
2019-04-29T13:29:48.558Z,3.60
2019-04-29T13:32:17.927Z,7.97
2019-04-29T13:34:48.915Z,7.17
2019-04-29T13:37:19.869Z,7.90
2019-04-29T13:39:49.292Z,5.60
2019-04-29T13:42:18.152Z,5.97
2019-04-29T13:45:05.364Z,3.23
2019-04-29T13:47:50.479Z,6.07
2019-04-29T13:50:41.084Z,4.20
2019-04-29T13:53:11.680Z,5.33
2019-04-29T13:55:49.967Z,5.03
2019-04-29T13:58:12.207Z,6.10
2019-04-29T14:00:48.672Z,5.63
2019-04-29T14:03:22.664Z,3.83
2019-04-29T14:06:03.657Z,5.90
2019-04-29T14:08:24.286Z,13.30
2019-04-29T14:10:53.245Z,15.23
2019-04-29T14:13:22.459Z,7.03
2019-04-29T14:15:51.630Z,11.87
2019-04-29T14:18:21.040Z,7.00
2019-04-29T14:20:51.810Z,4.80
2019-04-29T14:23:21.015Z,7.57
2019-04-29T14:25:49.935Z,12.60
2019-04-29T14:28:19.519Z,11.10
2019-04-29T14:30:49.198Z,8.10
2019-04-29T14:33:24.409Z,7.50
2019-04-29T14:35:59.566Z,5.93
2019-04-29T14:38:28.024Z,4.83
2019-04-29T14:40:57.340Z,5.10
2019-04-29T14:43:46.396Z,6.57
2019-04-29T14:46:31.395Z,11.63
2019-04-29T14:49:13.568Z,4.80
2019-04-29T14:51:42.968Z,6.23
2019-04-29T14:54:11.820Z,3.87
2019-04-29T14:56:40.757Z,6.70
2019-04-29T14:59:10.376Z,4.33
2019-04-29T15:01:48.373Z,4.33
2019-04-29T15:04:20.182Z,4.03
2019-04-29T15:06:49.495Z,5.60
2019-04-29T15:09:19.957Z,4.40
2019-04-29T15:11:58.541Z,6.60
2019-04-29T15:14:31.457Z,7.17
2019-04-29T15:17:11.512Z,9.87
2019-04-29T15:19:55.796Z,13.40
2019-04-29T15:22:27.199Z,6.67
2019-04-29T15:24:56.083Z,14.20
2019-04-29T15:27:24.936Z,7.87
2019-04-29T15:29:54.172Z,9.73
2019-04-29T15:32:23.785Z,8.80
2019-04-29T15:34:53.196Z,6.60
2019-04-29T15:37:22.699Z,6.80
2019-04-29T15:39:52.192Z,10.40
2019-04-29T15:42:21.115Z,8.20
2019-04-29T15:44:51.572Z,8.90
2019-04-29T15:47:21.043Z,7.17
2019-04-29T15:49:50.255Z,6.90
2019-04-29T15:52:20.987Z,7.90
2019-04-29T15:54:52.432Z,8.40
2019-04-29T15:57:21.764Z,7.00
2019-04-29T15:59:58.679Z,13.53
2019-04-29T16:02:22.069Z,8.57
2019-04-29T16:04:56.987Z,9.13
2019-04-29T16:07:37.319Z,12.97
2019-04-29T16:10:36.531Z,9.83
2019-04-29T16:13:07.906Z,9.23
2019-04-29T16:15:36.839Z,6.20
2019-04-29T16:18:10.652Z,9.10
2019-04-29T16:20:36.858Z,7.90
2019-04-29T16:23:06.125Z,8.07
2019-04-29T16:28:06.358Z,6.43
2019-04-29T16:30:35.735Z,8.33
2019-04-29T16:33:13.021Z,9.20
2019-04-29T16:35:35.672Z,11.53
2019-04-29T16:38:11.186Z,5.47
2019-04-29T16:40:41.376Z,8.53
2019-04-29T16:43:17.837Z,6.87
2019-04-29T16:45:54.980Z,4.93
2019-04-29T16:48:24.176Z,4.53
2019-04-29T16:50:53.207Z,4.90
2019-04-29T16:53:22.113Z,10.80
2019-04-29T16:55:51.101Z,4.93
2019-04-29T16:58:20.248Z,7.27
2019-04-29T17:00:53.014Z,6.57
2019-04-29T17:03:21.104Z,5.47
2019-04-29T17:05:50.807Z,7.97
2019-04-29T17:08:22.159Z,8.60
2019-04-29T17:11:12.034Z,6.93
2019-04-29T17:13:37.186Z,5.37
2019-04-29T17:16:08.693Z,6.70
2019-04-29T17:18:38.069Z,4.87
2019-04-29T17:21:07.581Z,12.83
2019-04-29T17:23:37.114Z,14.77
2019-04-29T17:26:06.647Z,4.43
2019-04-29T17:28:42.711Z,8.80
2019-04-29T17:31:20.534Z,12.73
2019-04-29T17:34:29.395Z,8.37
2019-04-29T17:35:15.681Z,7.00
2019-04-29T17:36:45.699Z,9.20
2019-04-29T17:39:15.191Z,7.30
2019-04-29T17:41:44.811Z,8.67
2019-04-29T17:44:25.978Z,14.30
2019-04-29T17:47:11.491Z,8.00
2019-04-29T17:50:05.871Z,12.80
2019-04-29T17:52:35.128Z,6.23
2019-04-29T17:55:13.047Z,7.83
2019-04-29T17:57:59.955Z,5.07
2019-04-29T18:01:00.024Z,5.73
2019-04-29T18:03:46.063Z,5.13
2019-04-29T18:06:24.202Z,8.30
2019-04-29T18:09:22.243Z,5.40
2019-04-29T18:11:53.679Z,11.10
2019-04-29T18:14:22.802Z,6.63
2019-04-29T18:16:52.515Z,6.00
2019-04-29T18:19:41.358Z,11.00
2019-04-29T18:22:49.076Z,18.00
2019-04-29T18:25:54.827Z,11.23
2019-04-29T18:28:23.878Z,16.27
2019-04-29T18:30:56.093Z,22.93
2019-04-29T18:33:29.882Z,34.40
2019-04-29T18:36:03.801Z,9.90
2019-04-29T18:38:26.481Z,8.53
2019-04-29T18:40:56.060Z,11.40
2019-04-29T18:43:26.633Z,6.70
2019-04-29T18:45:59.016Z,12.70
2019-04-29T18:48:27.270Z,11.20
2019-04-29T18:50:57.212Z,10.53
2019-04-29T18:53:26.529Z,11.10
2019-04-29T18:55:55.537Z,7.30
2019-04-29T18:58:25.076Z,7.37
2019-04-29T19:00:56.397Z,9.27
2019-04-29T19:03:37.164Z,10.57
2019-04-29T19:06:10.291Z,8.43
2019-04-29T19:08:37.176Z,17.43
2019-04-29T19:11:06.940Z,13.83
2019-04-29T19:13:36.717Z,12.00
2019-04-29T19:16:10.277Z,11.20
2019-04-29T19:18:36.748Z,12.07
2019-04-29T19:21:06.866Z,8.47
2019-04-29T19:23:36.967Z,11.87
2019-04-29T19:26:06.205Z,7.10
2019-04-29T19:28:56.413Z,10.60
2019-04-29T19:31:26.156Z,6.33
2019-04-29T19:33:57.209Z,6.63
2019-04-29T19:36:26.251Z,5.83
2019-04-29T19:38:55.207Z,18.83
2019-04-29T19:41:25.601Z,10.57
2019-04-29T19:43:56.558Z,5.40
2019-04-29T19:46:36.815Z,8.93
2019-04-29T19:48:58.278Z,8.73
2019-04-29T19:51:27.262Z,14.40
2019-04-29T19:53:56.520Z,21.00
2019-04-29T19:56:27.125Z,13.57
2019-04-29T19:58:57.877Z,8.30
2019-04-29T20:01:31.808Z,7.83
2019-04-29T20:04:27.248Z,12.20
2019-04-29T20:07:02.181Z,8.00
2019-04-29T20:09:28.847Z,7.60
2019-04-29T20:11:58.847Z,9.27
2019-04-29T20:14:33.528Z,13.07
2019-04-29T20:17:13.992Z,9.70
2019-04-29T20:19:55.287Z,11.53
2019-04-29T20:22:19.116Z,10.73
2019-04-29T20:24:50.601Z,13.37
2019-04-29T20:27:20.548Z,10.13
2019-04-29T20:29:50.225Z,10.37
2019-04-29T20:32:22.582Z,7.60
2019-04-29T20:34:50.790Z,7.30
2019-04-29T20:37:20.044Z,9.50
2019-04-29T20:39:51.953Z,13.10
2019-04-29T20:42:20.737Z,10.90
2019-04-29T20:44:49.815Z,17.80
2019-04-29T20:47:23.400Z,14.87
2019-04-29T20:49:50.027Z,10.20
2019-04-29T20:52:47.683Z,11.20
2019-04-29T20:55:17.096Z,15.87
2019-04-29T20:57:47.963Z,13.30
2019-04-29T21:00:20.186Z,10.53
2019-04-29T21:02:49.010Z,18.50
2019-04-29T21:05:23.202Z,8.50
2019-04-29T21:07:49.241Z,12.30
2019-04-29T21:10:18.727Z,16.03
2019-04-29T21:12:59.487Z,12.00
2019-04-29T21:15:55.584Z,11.90
2019-04-29T21:18:25.344Z,9.43
2019-04-29T21:20:59.666Z,10.90
2019-04-29T21:23:31.437Z,13.17
2019-04-29T21:26:00.537Z,18.73
2019-04-29T21:28:31.556Z,14.20
2019-04-29T21:31:00.027Z,9.70
2019-04-29T21:33:31.148Z,13.00
2019-04-29T21:36:15.367Z,13.40
2019-04-29T21:39:01.883Z,17.60
2019-04-29T21:41:36.159Z,10.20
2019-04-29T21:44:05.952Z,13.80
2019-04-29T21:46:37.244Z,17.33
2019-04-29T21:49:11.577Z,12.17
2019-04-29T21:51:41.713Z,12.37
2019-04-29T21:54:09.695Z,11.10
2019-04-29T21:56:39.705Z,9.63
2019-04-29T21:59:12.003Z,17.07
2019-04-29T22:01:40.255Z,12.07
2019-04-29T22:04:09.564Z,13.67
2019-04-29T22:06:38.871Z,13.30
2019-04-29T22:09:08.876Z,12.87
2019-04-29T22:11:43.454Z,15.77
2019-04-29T22:14:09.899Z,22.03
2019-04-29T22:16:40.458Z,11.70
2019-04-29T22:19:09.787Z,12.53
2019-04-29T22:21:39.057Z,11.87
2019-04-29T22:24:08.256Z,19.53
2019-04-29T22:26:37.392Z,12.57
2019-04-29T22:29:06.651Z,15.90
2019-04-29T22:31:38.197Z,15.53
2019-04-29T22:34:10.026Z,23.47
2019-04-29T22:36:37.744Z,18.27
2019-04-29T22:39:06.947Z,22.33
2019-04-29T22:41:54.210Z,16.23
2019-04-29T22:44:25.796Z,14.17
2019-04-29T22:46:55.511Z,13.57
2019-04-29T22:49:29.242Z,14.80
2019-04-29T22:51:57.081Z,18.70
2019-04-29T22:54:26.258Z,13.33
2019-04-29T22:56:56.730Z,15.60
2019-04-29T22:59:27.472Z,23.33
2019-04-29T23:01:56.979Z,16.53
2019-04-29T23:04:26.639Z,18.33
2019-04-29T23:06:55.948Z,14.63
2019-04-29T23:09:25.247Z,18.23
2019-04-29T23:11:55.697Z,17.10
2019-04-29T23:14:25.432Z,17.13
2019-04-29T23:16:55.575Z,25.30
2019-04-29T23:19:25.932Z,16.30
2019-04-29T23:22:15.435Z,16.90
2019-04-29T23:25:11.012Z,23.70
2019-04-29T23:27:40.520Z,24.13
2019-04-29T23:30:13.601Z,13.87
2019-04-29T23:32:47.344Z,18.27
2019-04-29T23:35:14.859Z,17.60
2019-04-29T23:37:45.735Z,15.97
2019-04-29T23:40:15.409Z,18.13
2019-04-29T23:42:47.859Z,22.30
2019-04-29T23:45:20.960Z,19.00
2019-04-29T23:47:49.394Z,22.93
2019-04-29T23:50:18.839Z,21.80
2019-04-29T23:52:51.753Z,24.63
2019-04-29T23:55:20.566Z,17.23
2019-04-29T23:58:12.251Z,18.23
